createdAt,value
2018-02-03T00:00:35.153Z,0.00
2018-02-03T00:01:35.198Z,0.00
2018-02-03T00:02:35.154Z,0.00
2018-02-03T00:03:35.173Z,0.00
2018-02-03T00:04:35.257Z,0.00
2018-02-03T00:05:35.256Z,0.00
2018-02-03T00:06:35.259Z,0.00
2018-02-03T00:07:35.177Z,0.00
2018-02-03T00:08:35.176Z,0.00
2018-02-03T00:09:35.137Z,0.00
2018-02-03T00:10:35.272Z,0.00
2018-02-03T00:11:35.279Z,0.00
2018-02-03T00:12:35.275Z,0.00
2018-02-03T00:13:35.280Z,0.00
2018-02-03T00:14:35.212Z,0.00
2018-02-03T00:15:35.276Z,0.00
2018-02-03T00:16:35.213Z,0.00
2018-02-03T00:17:35.280Z,0.00
2018-02-03T00:18:35.212Z,0.00
2018-02-03T00:19:35.211Z,0.00
2018-02-03T00:20:35.217Z,0.00
2018-02-03T00:21:35.287Z,0.00
2018-02-03T00:22:35.214Z,0.00
2018-02-03T00:23:35.284Z,0.00
2018-02-03T00:24:35.215Z,0.00
2018-02-03T00:25:35.287Z,0.00
2018-02-03T00:26:35.217Z,0.00
2018-02-03T00:27:35.282Z,0.00
2018-02-03T00:28:35.215Z,0.00
2018-02-03T00:29:35.222Z,0.00
2018-02-03T00:30:35.217Z,0.00
2018-02-03T00:31:35.284Z,0.00
2018-02-03T00:32:35.217Z,0.00
2018-02-03T00:33:35.222Z,0.00
2018-02-03T00:34:35.224Z,0.00
2018-02-03T00:35:35.226Z,0.00
2018-02-03T00:36:35.223Z,0.00
2018-02-03T00:37:35.288Z,0.00
2018-02-03T00:38:35.225Z,0.00
2018-02-03T00:39:35.291Z,0.00
2018-02-03T00:40:35.375Z,0.00
2018-02-03T00:41:35.290Z,0.00
2018-02-03T00:42:35.223Z,0.00
2018-02-03T00:43:35.307Z,0.00
2018-02-03T00:44:35.230Z,0.00
2018-02-03T00:45:35.298Z,0.00
2018-02-03T00:46:35.294Z,0.00
2018-02-03T00:47:35.294Z,0.00
2018-02-03T00:48:35.226Z,0.00
2018-02-03T00:49:35.272Z,0.00
2018-02-03T00:50:35.253Z,0.00
2018-02-03T00:51:35.246Z,0.00
2018-02-03T00:52:35.249Z,0.00
2018-02-03T00:53:35.160Z,0.00
2018-02-03T00:54:35.287Z,0.00
2018-02-03T00:55:35.167Z,0.00
2018-02-03T00:56:35.255Z,0.00
2018-02-03T00:57:35.280Z,0.00
2018-02-03T00:58:35.282Z,0.00
2018-02-03T00:59:35.167Z,0.00
2018-02-03T01:00:35.307Z,0.00
2018-02-03T01:01:35.237Z,0.00
2018-02-03T01:02:35.312Z,0.00
2018-02-03T01:03:35.309Z,0.00
2018-02-03T01:04:35.307Z,0.00
2018-02-03T01:05:35.244Z,0.00
2018-02-03T01:06:35.305Z,0.00
2018-02-03T01:07:35.244Z,0.00
2018-02-03T01:08:35.310Z,0.00
2018-02-03T01:09:35.313Z,0.00
2018-02-03T01:10:35.238Z,0.00
2018-02-03T01:11:35.310Z,0.00
2018-02-03T01:12:35.249Z,0.00
2018-02-03T01:13:35.313Z,0.00
2018-02-03T01:14:35.248Z,0.00
2018-02-03T01:15:35.312Z,0.00
2018-02-03T01:16:35.312Z,0.00
2018-02-03T01:17:35.245Z,0.00
2018-02-03T01:18:35.320Z,0.00
2018-02-03T01:19:35.318Z,0.00
2018-02-03T01:20:35.253Z,0.00
2018-02-03T01:21:35.318Z,0.00
2018-02-03T01:22:35.246Z,0.00
2018-02-03T01:23:35.321Z,0.00
2018-02-03T01:24:35.250Z,0.00
2018-02-03T01:25:35.252Z,0.00
2018-02-03T01:26:35.322Z,0.00
2018-02-03T01:27:35.279Z,0.00
2018-02-03T01:28:35.321Z,0.00
2018-02-03T01:29:35.256Z,0.00
2018-02-03T01:30:35.322Z,0.00
2018-02-03T01:31:35.258Z,0.00
2018-02-03T01:32:35.323Z,0.00
2018-02-03T01:33:35.258Z,0.00
2018-02-03T01:34:35.220Z,0.00
2018-02-03T01:35:35.257Z,0.00
2018-02-03T01:36:35.325Z,0.00
2018-02-03T01:37:35.266Z,0.00
2018-02-03T01:38:35.331Z,0.00
2018-02-03T01:39:35.333Z,0.00
2018-02-03T01:40:35.262Z,0.00
2018-02-03T01:41:35.330Z,0.00
2018-02-03T01:42:35.269Z,0.00
2018-02-03T01:43:35.291Z,0.00
2018-02-03T01:44:35.335Z,0.00
2018-02-03T01:45:35.264Z,0.00
2018-02-03T01:46:35.332Z,0.00
2018-02-03T01:47:35.270Z,0.00
2018-02-03T01:48:35.334Z,0.00
2018-02-03T01:49:35.333Z,0.00
2018-02-03T01:50:35.270Z,0.00
2018-02-03T01:51:35.334Z,0.00
2018-02-03T01:52:35.272Z,0.00
2018-02-03T01:53:35.341Z,0.00
2018-02-03T01:54:35.262Z,0.00
2018-02-03T01:55:35.337Z,0.00
2018-02-03T01:56:35.275Z,0.00
2018-02-03T01:57:35.234Z,0.00
2018-02-03T01:58:35.272Z,0.00
2018-02-03T01:59:35.343Z,0.00
2018-02-03T02:00:35.367Z,0.00
2018-02-03T02:01:35.341Z,0.00
2018-02-03T02:02:35.317Z,0.00
2018-02-03T02:03:35.275Z,0.00
2018-02-03T02:04:35.228Z,0.00
2018-02-03T02:05:35.343Z,0.00
2018-02-03T02:06:35.277Z,0.00
2018-02-03T02:07:35.278Z,0.00
2018-02-03T02:08:35.275Z,0.00
2018-02-03T02:09:35.346Z,0.00
2018-02-03T02:10:35.284Z,0.00
2018-02-03T02:11:35.348Z,0.00
2018-02-03T02:12:35.279Z,0.00
2018-02-03T02:13:35.245Z,0.00
2018-02-03T02:14:35.376Z,0.00
2018-02-03T02:15:35.289Z,0.00
2018-02-03T02:16:35.285Z,0.00
2018-02-03T02:17:35.348Z,0.00
2018-02-03T02:18:35.283Z,0.00
2018-02-03T02:19:35.350Z,0.00
2018-02-03T02:20:35.309Z,0.00
2018-02-03T02:21:35.347Z,0.00
2018-02-03T02:22:35.349Z,0.00
2018-02-03T02:23:35.344Z,0.00
2018-02-03T02:24:35.343Z,0.00
2018-02-03T02:25:35.344Z,0.00
2018-02-03T02:26:35.228Z,0.00
2018-02-03T02:27:35.259Z,0.00
2018-02-03T02:28:35.313Z,0.00
2018-02-03T02:29:35.266Z,0.00
2018-02-03T02:30:35.267Z,0.00
2018-02-03T02:31:35.316Z,0.00
2018-02-03T02:32:35.312Z,0.00
2018-02-03T02:33:35.286Z,0.00
2018-02-03T02:34:35.255Z,0.00
2018-02-03T02:35:35.317Z,0.00
2018-02-03T02:36:35.319Z,0.00
2018-02-03T02:37:35.262Z,0.00
2018-02-03T02:38:35.364Z,0.00
2018-02-03T02:39:35.321Z,0.00
2018-02-03T02:40:35.351Z,0.00
2018-02-03T02:41:35.367Z,0.00
2018-02-03T02:42:35.307Z,0.00
2018-02-03T02:43:35.299Z,0.00
2018-02-03T02:44:35.372Z,0.00
2018-02-03T02:45:35.262Z,0.00
2018-02-03T02:46:35.301Z,0.00
2018-02-03T02:47:35.371Z,0.00
2018-02-03T02:48:35.372Z,0.00
2018-02-03T02:49:35.375Z,0.00
2018-02-03T02:50:35.310Z,0.00
2018-02-03T02:51:35.304Z,0.00
2018-02-03T02:52:35.372Z,0.00
2018-02-03T02:53:35.306Z,0.00
2018-02-03T02:54:35.375Z,0.00
2018-02-03T02:55:35.307Z,0.00
2018-02-03T02:56:35.375Z,0.00
2018-02-03T02:57:35.343Z,0.00
2018-02-03T02:58:35.314Z,0.00
2018-02-03T02:59:35.382Z,0.00
2018-02-03T03:00:35.380Z,0.00
2018-02-03T03:01:35.273Z,0.00
2018-02-03T03:02:35.326Z,0.00
2018-02-03T03:03:35.319Z,0.00
2018-02-03T03:04:35.324Z,0.00
2018-02-03T03:05:35.392Z,0.00
2018-02-03T03:06:35.325Z,0.00
2018-02-03T03:07:35.332Z,0.00
2018-02-03T03:08:35.330Z,0.00
2018-02-03T03:09:35.239Z,0.00
2018-02-03T03:10:35.232Z,0.00
2018-02-03T03:11:35.289Z,0.00
2018-02-03T03:12:35.319Z,0.00
2018-02-03T03:13:35.251Z,0.00
2018-02-03T03:14:35.315Z,0.00
2018-02-03T03:15:35.250Z,0.00
2018-02-03T03:16:35.337Z,0.00
2018-02-03T03:17:35.357Z,0.00
2018-02-03T03:18:35.271Z,0.00
2018-02-03T03:19:35.294Z,0.00
2018-02-03T03:20:35.294Z,0.00
2018-02-03T03:21:35.273Z,0.00
2018-02-03T03:22:35.388Z,0.00
2018-02-03T03:23:47.857Z,0.00
2018-02-03T03:24:35.333Z,0.00
2018-02-03T03:25:35.396Z,0.00
2018-02-03T03:26:35.392Z,0.00
2018-02-03T03:27:35.327Z,0.00
2018-02-03T03:28:35.397Z,0.00
2018-02-03T03:29:35.351Z,0.00
2018-02-03T03:30:35.399Z,0.00
2018-02-03T03:31:35.370Z,0.00
2018-02-03T03:32:35.381Z,0.00
2018-02-03T03:33:35.386Z,0.00
2018-02-03T03:34:35.284Z,0.00
2018-02-03T03:35:35.300Z,0.00
2018-02-03T03:36:35.335Z,0.00
2018-02-03T03:37:35.391Z,0.00
2018-02-03T03:38:35.281Z,0.00
2018-02-03T03:39:35.387Z,0.00
2018-02-03T03:40:35.390Z,0.00
2018-02-03T03:41:35.335Z,0.00
2018-02-03T03:42:35.403Z,0.00
2018-02-03T03:43:35.338Z,0.00
2018-02-03T03:44:35.404Z,0.00
2018-02-03T03:45:35.342Z,0.00
2018-02-03T03:46:35.408Z,0.00
2018-02-03T03:47:35.410Z,0.00
2018-02-03T03:48:35.407Z,0.00
2018-02-03T03:49:35.413Z,0.00
2018-02-03T03:50:35.349Z,0.00
2018-02-03T03:51:35.411Z,0.00
2018-02-03T03:52:35.386Z,0.00
2018-02-03T03:53:35.342Z,0.00
2018-02-03T03:54:35.418Z,0.00
2018-02-03T03:55:35.408Z,0.00
2018-02-03T03:56:35.380Z,0.00
2018-02-03T03:57:35.342Z,0.00
2018-02-03T03:58:35.435Z,0.00
2018-02-03T03:59:35.343Z,0.00
2018-02-03T04:00:35.419Z,0.00
2018-02-03T04:01:35.344Z,0.00
2018-02-03T04:02:35.364Z,0.00
2018-02-03T04:03:35.318Z,0.00
2018-02-03T04:04:35.403Z,0.00
2018-02-03T04:05:35.384Z,0.00
2018-02-03T04:06:35.285Z,0.00
2018-02-03T04:07:35.402Z,0.00
2018-02-03T04:08:35.401Z,0.00
2018-02-03T04:09:35.323Z,0.00
2018-02-03T04:10:35.361Z,0.00
2018-02-03T04:11:35.420Z,0.00
2018-02-03T04:12:35.353Z,0.00
2018-02-03T04:13:35.347Z,0.00
2018-02-03T04:14:35.356Z,0.00
2018-02-03T04:15:35.424Z,0.00
2018-02-03T04:16:35.427Z,0.00
2018-02-03T04:17:35.354Z,0.00
2018-02-03T04:18:35.422Z,0.00
2018-02-03T04:19:35.360Z,0.00
2018-02-03T04:20:35.426Z,0.00
2018-02-03T04:21:35.425Z,0.00
2018-02-03T04:22:35.386Z,0.00
2018-02-03T04:23:35.512Z,0.00
2018-02-03T04:24:35.426Z,0.00
2018-02-03T04:25:35.362Z,0.00
2018-02-03T04:26:35.428Z,0.00
2018-02-03T04:27:35.363Z,0.00
2018-02-03T04:28:35.433Z,0.00
2018-02-03T04:29:35.443Z,0.00
2018-02-03T04:30:35.366Z,0.00
2018-02-03T04:31:35.432Z,0.00
2018-02-03T04:32:35.436Z,0.00
2018-02-03T04:33:35.397Z,0.00
2018-02-03T04:34:35.442Z,0.00
2018-02-03T04:35:35.436Z,0.00
2018-02-03T04:36:35.436Z,0.00
2018-02-03T04:37:35.434Z,0.00
2018-02-03T04:38:35.371Z,0.00
2018-02-03T04:39:35.434Z,0.00
2018-02-03T04:40:35.370Z,0.00
2018-02-03T04:41:35.339Z,0.00
2018-02-03T04:42:35.338Z,0.00
2018-02-03T04:43:35.424Z,0.00
2018-02-03T04:44:35.407Z,0.00
2018-02-03T04:45:35.406Z,0.00
2018-02-03T04:46:35.345Z,0.00
2018-02-03T04:47:35.408Z,0.00
2018-02-03T04:48:35.390Z,0.00
2018-02-03T04:49:35.328Z,0.00
2018-02-03T04:50:35.390Z,0.00
2018-02-03T04:51:35.429Z,0.00
2018-02-03T04:52:35.431Z,0.00
2018-02-03T04:53:35.434Z,0.00
2018-02-03T04:54:35.374Z,0.00
2018-02-03T04:55:35.373Z,0.00
2018-02-03T04:56:35.432Z,0.00
2018-02-03T04:57:35.351Z,0.00
2018-02-03T04:58:35.434Z,0.00
2018-02-03T04:59:35.347Z,0.00
2018-02-03T05:00:35.350Z,0.00
2018-02-03T05:01:35.377Z,0.00
2018-02-03T05:02:35.343Z,0.00
2018-02-03T05:03:35.309Z,0.00
2018-02-03T05:04:35.317Z,0.00
2018-02-03T05:05:35.415Z,0.00
2018-02-03T05:06:35.313Z,0.00
2018-02-03T05:07:35.430Z,0.00
2018-02-03T05:08:35.613Z,0.00
2018-02-03T05:09:35.412Z,0.00
2018-02-03T05:10:35.416Z,0.00
2018-02-03T05:11:35.338Z,0.00
2018-02-03T05:12:35.448Z,0.00
2018-02-03T05:13:35.384Z,0.00
2018-02-03T05:14:35.446Z,0.00
2018-02-03T05:15:35.400Z,0.00
2018-02-03T05:16:35.459Z,0.00
2018-02-03T05:17:35.408Z,0.00
2018-02-03T05:18:35.389Z,0.00
2018-02-03T05:19:35.410Z,0.00
2018-02-03T05:20:35.365Z,0.00
2018-02-03T05:21:35.366Z,0.00
2018-02-03T05:22:35.462Z,0.00
2018-02-03T05:23:35.479Z,0.00
2018-02-03T05:24:35.344Z,0.00
2018-02-03T05:25:35.456Z,0.00
2018-02-03T05:26:35.454Z,0.00
2018-02-03T05:27:35.464Z,0.00
2018-02-03T05:28:35.428Z,0.00
2018-02-03T05:29:35.451Z,0.00
2018-02-03T05:30:35.373Z,0.00
2018-02-03T05:31:35.403Z,0.00
2018-02-03T05:32:35.356Z,0.00
2018-02-03T05:33:35.329Z,0.00
2018-02-03T05:34:35.457Z,0.00
2018-02-03T05:35:35.394Z,0.00
2018-02-03T05:36:35.399Z,0.00
2018-02-03T05:37:35.330Z,0.00
2018-02-03T05:38:35.422Z,0.00
2018-02-03T05:39:35.398Z,0.00
2018-02-03T05:40:35.359Z,0.00
2018-02-03T05:41:35.473Z,0.00
2018-02-03T05:42:35.408Z,0.00
2018-02-03T05:43:35.475Z,0.00
2018-02-03T05:44:35.489Z,0.00
2018-02-03T05:45:35.410Z,0.00
2018-02-03T05:46:35.478Z,0.00
2018-02-03T05:47:35.480Z,0.00
2018-02-03T05:48:35.453Z,0.00
2018-02-03T05:49:35.506Z,0.00
2018-02-03T05:50:35.417Z,0.00
2018-02-03T05:51:35.479Z,0.00
2018-02-03T05:52:35.437Z,0.00
2018-02-03T05:53:35.479Z,0.00
2018-02-03T05:54:35.419Z,0.00
2018-02-03T05:55:35.480Z,0.00
2018-02-03T05:56:35.425Z,0.00
2018-02-03T05:57:35.373Z,0.00
2018-02-03T05:58:35.418Z,0.00
2018-02-03T05:59:35.483Z,0.00
2018-02-03T06:00:35.418Z,0.00
2018-02-03T06:01:35.393Z,0.00
2018-02-03T06:02:35.387Z,0.00
2018-02-03T06:03:35.395Z,0.00
2018-02-03T06:04:35.292Z,0.00
2018-02-03T06:05:35.347Z,0.00
2018-02-03T06:06:35.394Z,0.00
2018-02-03T06:07:35.478Z,0.00
2018-02-03T06:08:35.396Z,0.00
2018-02-03T06:09:35.395Z,0.00
2018-02-03T06:10:35.395Z,0.00
2018-02-03T06:11:35.358Z,0.00
2018-02-03T06:12:35.421Z,0.00
2018-02-03T06:13:35.378Z,0.00
2018-02-03T06:14:35.473Z,0.00
2018-02-03T06:15:35.352Z,0.00
2018-02-03T06:16:35.386Z,0.00
2018-02-03T06:17:35.455Z,0.00
2018-02-03T06:18:35.404Z,0.00
2018-02-03T06:19:35.446Z,0.00
2018-02-03T06:20:35.390Z,0.00
2018-02-03T06:21:35.408Z,0.00
2018-02-03T06:22:35.399Z,0.00
2018-02-03T06:23:35.466Z,0.00
2018-02-03T06:24:35.445Z,0.00
2018-02-03T06:25:35.448Z,0.00
2018-02-03T06:26:35.496Z,0.00
2018-02-03T06:27:35.439Z,0.00
2018-02-03T06:28:35.455Z,0.00
2018-02-03T06:29:35.386Z,0.00
2018-02-03T06:30:35.408Z,0.00
2018-02-03T06:31:35.469Z,0.00
2018-02-03T06:32:35.504Z,0.00
2018-02-03T06:33:35.431Z,0.00
2018-02-03T06:34:35.505Z,0.00
2018-02-03T06:35:35.439Z,0.00
2018-02-03T06:36:35.506Z,0.00
2018-02-03T06:37:35.443Z,0.00
2018-02-03T06:38:35.393Z,0.00
2018-02-03T06:39:35.438Z,0.00
2018-02-03T06:40:35.508Z,0.00
2018-02-03T06:41:35.489Z,0.00
2018-02-03T06:42:35.471Z,0.00
2018-02-03T06:43:35.496Z,0.00
2018-02-03T06:44:35.491Z,0.00
2018-02-03T06:45:35.382Z,0.00
2018-02-03T06:46:35.478Z,0.00
2018-02-03T06:47:35.423Z,0.00
2018-02-03T06:48:35.463Z,0.00
2018-02-03T06:49:35.500Z,0.00
2018-02-03T06:50:35.447Z,0.00
2018-02-03T06:51:35.502Z,0.00
2018-02-03T06:52:35.422Z,0.00
2018-02-03T06:53:35.508Z,0.00
2018-02-03T06:54:35.483Z,0.00
2018-02-03T06:55:35.443Z,0.00
2018-02-03T06:56:35.473Z,0.00
2018-02-03T06:57:35.508Z,0.00
2018-02-03T06:58:35.409Z,0.00
2018-02-03T06:59:35.502Z,0.00
2018-02-03T07:00:35.523Z,0.00
2018-02-03T07:01:35.453Z,0.00
2018-02-03T07:02:35.451Z,0.00
2018-02-03T07:03:35.522Z,0.00
2018-02-03T07:04:35.523Z,0.00
2018-02-03T07:05:35.460Z,0.00
2018-02-03T07:06:35.460Z,0.00
2018-02-03T07:07:35.457Z,0.00
2018-02-03T07:08:35.534Z,0.00
2018-02-03T07:09:35.463Z,0.00
2018-02-03T07:10:35.531Z,0.00
2018-02-03T07:11:35.463Z,0.00
2018-02-03T07:12:35.462Z,0.00
2018-02-03T07:13:35.528Z,0.00
2018-02-03T07:14:35.461Z,0.00
2018-02-03T07:15:35.579Z,0.00
2018-02-03T07:16:35.537Z,0.00
2018-02-03T07:17:35.465Z,0.00
2018-02-03T07:18:35.535Z,0.00
2018-02-03T07:19:35.467Z,0.00
2018-02-03T07:20:35.536Z,0.00
2018-02-03T07:21:35.492Z,0.00
2018-02-03T07:22:35.533Z,0.00
2018-02-03T07:23:35.464Z,0.00
2018-02-03T07:24:35.539Z,0.00
2018-02-03T07:25:35.537Z,0.00
2018-02-03T07:26:35.464Z,0.00
2018-02-03T07:27:35.537Z,0.00
2018-02-03T07:28:35.468Z,0.00
2018-02-03T07:29:35.537Z,0.00
2018-02-03T07:30:35.471Z,0.00
2018-02-03T07:31:35.416Z,0.00
2018-02-03T07:32:35.534Z,0.00
2018-02-03T07:33:35.440Z,0.00
2018-02-03T07:34:35.404Z,0.00
2018-02-03T07:35:35.447Z,0.00
2018-02-03T07:36:35.448Z,0.00
2018-02-03T07:37:35.532Z,0.00
2018-02-03T07:38:35.578Z,1.00
2018-02-03T07:39:35.490Z,1.00
2018-02-03T07:40:35.422Z,1.00
2018-02-03T07:41:35.547Z,1.00
2018-02-03T07:42:35.545Z,1.00
2018-02-03T07:43:35.495Z,1.00
2018-02-03T07:44:35.527Z,1.00
2018-02-03T07:45:35.547Z,1.00
2018-02-03T07:46:35.474Z,1.00
2018-02-03T07:47:35.548Z,1.00
2018-02-03T07:48:35.477Z,1.00
2018-02-03T07:49:35.549Z,1.00
2018-02-03T07:50:35.479Z,1.00
2018-02-03T07:51:35.551Z,1.00
2018-02-03T07:52:35.474Z,1.00
2018-02-03T07:53:35.552Z,1.00
2018-02-03T07:54:35.476Z,1.00
2018-02-03T07:55:35.487Z,1.00
2018-02-03T07:56:35.758Z,1.00
2018-02-03T07:57:35.554Z,2.00
2018-02-03T07:58:35.575Z,2.00
2018-02-03T07:59:35.481Z,2.00
2018-02-03T08:00:35.555Z,2.00
2018-02-03T08:01:35.547Z,2.00
2018-02-03T08:02:35.525Z,3.00
2018-02-03T08:03:35.463Z,3.00
2018-02-03T08:04:35.440Z,3.00
2018-02-03T08:05:35.544Z,3.00
2018-02-03T08:06:35.465Z,2.00
2018-02-03T08:07:35.444Z,2.00
2018-02-03T08:08:35.529Z,2.00
2018-02-03T08:09:35.507Z,2.00
2018-02-03T08:10:35.465Z,2.00
2018-02-03T08:11:35.441Z,2.00
2018-02-03T08:12:35.532Z,2.00
2018-02-03T08:13:35.446Z,2.00
2018-02-03T08:14:35.441Z,2.00
2018-02-03T08:15:35.477Z,2.00
2018-02-03T08:16:35.444Z,2.00
2018-02-03T08:17:35.556Z,2.00
2018-02-03T08:18:35.475Z,2.00
2018-02-03T08:19:35.553Z,2.00
2018-02-03T08:20:35.556Z,2.00
2018-02-03T08:21:35.469Z,2.00
2018-02-03T08:22:35.529Z,2.00
2018-02-03T08:23:35.482Z,2.00
2018-02-03T08:24:35.559Z,2.00
2018-02-03T08:25:35.570Z,2.00
2018-02-03T08:26:35.541Z,2.00
2018-02-03T08:27:35.517Z,2.00
2018-02-03T08:28:35.499Z,2.00
2018-02-03T08:29:35.572Z,2.00
2018-02-03T08:30:35.571Z,2.00
2018-02-03T08:31:35.504Z,2.00
2018-02-03T08:32:35.576Z,1.00
2018-02-03T08:33:35.508Z,1.00
2018-02-03T08:34:35.577Z,1.00
2018-02-03T08:35:35.505Z,1.00
2018-02-03T08:36:35.578Z,1.00
2018-02-03T08:37:35.607Z,1.00
2018-02-03T08:38:35.580Z,1.00
2018-02-03T08:39:35.516Z,1.00
2018-02-03T08:40:35.589Z,1.00
2018-02-03T08:41:35.526Z,1.00
2018-02-03T08:42:35.514Z,1.00
2018-02-03T08:43:35.444Z,1.00
2018-02-03T08:44:35.560Z,1.00
2018-02-03T08:45:35.447Z,1.00
2018-02-03T08:46:35.442Z,1.00
2018-02-03T08:47:35.444Z,1.00
2018-02-03T08:48:35.515Z,1.00
2018-02-03T08:49:35.454Z,1.00
2018-02-03T08:50:35.538Z,1.00
2018-02-03T08:51:35.457Z,1.00
2018-02-03T08:52:35.587Z,1.00
2018-02-03T08:53:35.584Z,1.00
2018-02-03T08:54:35.554Z,1.00
2018-02-03T08:55:35.576Z,2.00
2018-02-03T08:56:35.490Z,2.00
2018-02-03T08:57:35.577Z,2.00
2018-02-03T08:58:35.561Z,2.00
2018-02-03T08:59:35.472Z,2.00
2018-02-03T09:00:35.496Z,2.00
2018-02-03T09:01:35.479Z,2.00
2018-02-03T09:02:35.559Z,2.00
2018-02-03T09:03:35.521Z,2.00
2018-02-03T09:04:35.593Z,2.00
2018-02-03T09:05:35.566Z,2.00
2018-02-03T09:06:35.497Z,2.00
2018-02-03T09:07:35.569Z,2.00
2018-02-03T09:08:35.501Z,3.00
2018-02-03T09:09:35.482Z,3.00
2018-02-03T09:10:35.586Z,3.00
2018-02-03T09:11:35.592Z,3.00
2018-02-03T09:12:35.523Z,3.00
2018-02-03T09:13:35.602Z,3.00
2018-02-03T09:14:35.479Z,3.00
2018-02-03T09:15:35.524Z,3.00
2018-02-03T09:16:35.547Z,3.00
2018-02-03T09:17:35.566Z,3.00
2018-02-03T09:18:35.529Z,3.00
2018-02-03T09:19:35.506Z,3.00
2018-02-03T09:20:35.589Z,3.00
2018-02-03T09:21:35.565Z,3.00
2018-02-03T09:22:35.533Z,3.00
2018-02-03T09:23:35.609Z,4.00
2018-02-03T09:24:35.536Z,4.00
2018-02-03T09:25:35.609Z,5.00
2018-02-03T09:26:35.536Z,5.00
2018-02-03T09:27:35.617Z,5.00
2018-02-03T09:28:35.538Z,5.00
2018-02-03T09:29:35.611Z,5.00
2018-02-03T09:30:35.540Z,5.00
2018-02-03T09:31:35.610Z,5.00
2018-02-03T09:32:35.544Z,5.00
2018-02-03T09:33:35.613Z,5.00
2018-02-03T09:34:35.618Z,5.00
2018-02-03T09:35:35.541Z,5.00
2018-02-03T09:36:35.616Z,6.00
2018-02-03T09:37:35.546Z,6.00
2018-02-03T09:38:35.615Z,6.00
2018-02-03T09:39:35.547Z,6.00
2018-02-03T09:40:35.617Z,6.00
2018-02-03T09:41:35.546Z,6.00
2018-02-03T09:42:35.561Z,6.00
2018-02-03T09:43:35.511Z,5.00
2018-02-03T09:44:35.512Z,5.00
2018-02-03T09:45:35.568Z,4.00
2018-02-03T09:46:35.559Z,4.00
2018-02-03T09:47:35.592Z,3.00
2018-02-03T09:48:35.520Z,4.00
2018-02-03T09:49:35.513Z,4.00
2018-02-03T09:50:35.515Z,4.00
2018-02-03T09:51:35.472Z,5.00
2018-02-03T09:52:35.596Z,6.00
2018-02-03T09:53:35.480Z,6.00
2018-02-03T09:54:35.472Z,6.00
2018-02-03T09:55:35.532Z,5.00
2018-02-03T09:56:35.569Z,5.00
2018-02-03T09:57:35.481Z,5.00
2018-02-03T09:58:35.574Z,4.00
2018-02-03T09:59:35.485Z,4.00
2018-02-03T10:00:35.573Z,4.00
2018-02-03T10:01:35.479Z,4.00
2018-02-03T10:02:35.510Z,4.00
2018-02-03T10:03:35.595Z,4.00
2018-02-03T10:04:35.578Z,4.00
2018-02-03T10:05:35.574Z,4.00
2018-02-03T10:06:35.513Z,4.00
2018-02-03T10:07:35.539Z,4.00
2018-02-03T10:08:35.617Z,3.00
2018-02-03T10:09:35.575Z,3.00
2018-02-03T10:10:35.653Z,3.00
2018-02-03T10:11:35.580Z,3.00
2018-02-03T10:12:35.570Z,3.00
2018-02-03T10:13:35.637Z,3.00
2018-02-03T10:14:35.563Z,2.00
2018-02-03T10:15:35.638Z,2.00
2018-02-03T10:16:35.568Z,2.00
2018-02-03T10:17:35.639Z,2.00
2018-02-03T10:18:35.571Z,2.00
2018-02-03T10:19:35.647Z,2.00
2018-02-03T10:20:35.567Z,2.00
2018-02-03T10:21:35.639Z,2.00
2018-02-03T10:22:35.572Z,2.00
2018-02-03T10:23:35.642Z,2.00
2018-02-03T10:24:35.571Z,2.00
2018-02-03T10:25:35.573Z,2.00
2018-02-03T10:26:35.676Z,2.00
2018-02-03T10:27:35.575Z,2.00
2018-02-03T10:28:35.645Z,2.00
2018-02-03T10:29:35.575Z,2.00
2018-02-03T10:30:35.645Z,2.00
2018-02-03T10:31:35.648Z,2.00
2018-02-03T10:32:35.614Z,2.00
2018-02-03T10:33:35.570Z,2.00
2018-02-03T10:34:35.595Z,2.00
2018-02-03T10:35:35.527Z,2.00
2018-02-03T10:36:35.528Z,3.00
2018-02-03T10:37:35.668Z,3.00
2018-02-03T10:38:35.529Z,3.00
2018-02-03T10:39:35.563Z,4.00
2018-02-03T10:40:35.532Z,4.00
2018-02-03T10:41:35.528Z,4.00
2018-02-03T10:42:35.656Z,4.00
2018-02-03T10:43:35.587Z,4.00
2018-02-03T10:44:35.655Z,4.00
2018-02-03T10:45:35.591Z,4.00
2018-02-03T10:46:35.656Z,5.00
2018-02-03T10:47:35.658Z,5.00
2018-02-03T10:48:35.591Z,6.00
2018-02-03T10:49:35.660Z,7.00
2018-02-03T10:50:35.592Z,7.00
2018-02-03T10:51:35.660Z,6.00
2018-02-03T10:52:35.535Z,6.00
2018-02-03T10:53:35.564Z,6.00
2018-02-03T10:54:35.620Z,6.00
2018-02-03T10:55:35.587Z,6.00
2018-02-03T10:56:35.656Z,7.00
2018-02-03T10:57:35.539Z,7.00
2018-02-03T10:58:35.658Z,8.00
2018-02-03T10:59:35.611Z,8.00
2018-02-03T11:00:35.593Z,7.00
2018-02-03T11:01:35.634Z,7.00
2018-02-03T11:02:35.670Z,7.00
2018-02-03T11:03:35.593Z,7.00
2018-02-03T11:04:35.670Z,7.00
2018-02-03T11:05:35.601Z,6.00
2018-02-03T11:06:35.670Z,6.00
2018-02-03T11:07:35.619Z,6.00
2018-02-03T11:08:35.672Z,6.00
2018-02-03T11:09:35.599Z,6.00
2018-02-03T11:10:35.676Z,6.00
2018-02-03T11:11:35.600Z,7.00
2018-02-03T11:12:35.674Z,7.00
2018-02-03T11:13:35.601Z,7.00
2018-02-03T11:14:35.674Z,7.00
2018-02-03T11:15:35.607Z,8.00
2018-02-03T11:16:35.674Z,8.00
2018-02-03T11:17:35.604Z,8.00
2018-02-03T11:18:35.676Z,8.00
2018-02-03T11:19:35.604Z,9.00
2018-02-03T11:20:35.677Z,9.00
2018-02-03T11:21:35.678Z,9.00
2018-02-03T11:22:35.605Z,9.00
2018-02-03T11:23:35.707Z,9.00
2018-02-03T11:24:35.616Z,10.00
2018-02-03T11:25:35.684Z,10.00
2018-02-03T11:26:35.611Z,11.00
2018-02-03T11:27:35.683Z,11.00
2018-02-03T11:28:35.609Z,11.00
2018-02-03T11:29:35.682Z,12.00
2018-02-03T11:30:35.613Z,12.00
2018-02-03T11:31:35.684Z,12.00
2018-02-03T11:32:35.611Z,12.00
2018-02-03T11:33:35.686Z,11.00
2018-02-03T11:34:35.614Z,10.00
2018-02-03T11:35:35.696Z,9.00
2018-02-03T11:36:35.628Z,9.00
2018-02-03T11:37:35.687Z,8.00
2018-02-03T11:38:35.622Z,8.00
2018-02-03T11:39:35.689Z,9.00
2018-02-03T11:40:35.583Z,9.00
2018-02-03T11:41:35.622Z,9.00
2018-02-03T11:42:35.729Z,10.00
2018-02-03T11:43:35.597Z,10.00
2018-02-03T11:44:35.660Z,10.00
2018-02-03T11:45:35.596Z,10.00
2018-02-03T11:46:35.569Z,10.00
2018-02-03T11:47:35.694Z,11.00
2018-02-03T11:48:35.661Z,11.00
2018-02-03T11:49:35.576Z,11.00
2018-02-03T11:50:35.622Z,11.00
2018-02-03T11:51:35.597Z,11.00
2018-02-03T11:52:35.623Z,12.00
2018-02-03T11:53:35.695Z,12.00
2018-02-03T11:54:35.622Z,13.00
2018-02-03T11:55:35.623Z,14.00
2018-02-03T11:56:35.700Z,14.00
2018-02-03T11:57:35.628Z,14.00
2018-02-03T11:58:35.703Z,14.00
2018-02-03T11:59:35.628Z,13.00
2018-02-03T12:00:35.699Z,13.00
2018-02-03T12:01:35.627Z,13.00
2018-02-03T12:02:35.629Z,13.00
2018-02-03T12:03:35.646Z,13.00
2018-02-03T12:04:35.632Z,13.00
2018-02-03T12:05:35.668Z,13.00
2018-02-03T12:06:35.561Z,13.00
2018-02-03T12:07:35.560Z,12.00
2018-02-03T12:08:35.610Z,11.00
2018-02-03T12:09:35.564Z,11.00
2018-02-03T12:10:35.635Z,10.00
2018-02-03T12:11:35.642Z,9.00
2018-02-03T12:12:35.642Z,8.00
2018-02-03T12:13:35.639Z,7.00
2018-02-03T12:14:35.712Z,7.00
2018-02-03T12:15:35.637Z,6.00
2018-02-03T12:16:35.712Z,6.00
2018-02-03T12:17:35.638Z,5.00
2018-02-03T12:18:35.712Z,5.00
2018-02-03T12:19:35.692Z,5.00
2018-02-03T12:20:35.716Z,6.00
2018-02-03T12:21:35.715Z,6.00
2018-02-03T12:22:35.643Z,6.00
2018-02-03T12:23:35.676Z,6.00
2018-02-03T12:24:35.683Z,6.00
2018-02-03T12:25:35.704Z,6.00
2018-02-03T12:26:35.619Z,6.00
2018-02-03T12:27:35.683Z,6.00
2018-02-03T12:28:35.643Z,7.00
2018-02-03T12:29:35.664Z,7.00
2018-02-03T12:30:35.599Z,7.00
2018-02-03T12:31:35.719Z,7.00
2018-02-03T12:32:35.596Z,7.00
2018-02-03T12:33:35.605Z,6.00
2018-02-03T12:34:35.712Z,6.00
2018-02-03T12:35:35.717Z,6.00
2018-02-03T12:36:35.610Z,6.00
2018-02-03T12:37:35.620Z,6.00
2018-02-03T12:38:35.647Z,6.00
2018-02-03T12:39:35.712Z,6.00
2018-02-03T12:40:35.716Z,6.00
2018-02-03T12:41:35.695Z,5.00
2018-02-03T12:42:35.655Z,5.00
2018-02-03T12:43:35.726Z,5.00
2018-02-03T12:44:35.729Z,5.00
2018-02-03T12:45:35.657Z,5.00
2018-02-03T12:46:35.730Z,5.00
2018-02-03T12:47:35.659Z,5.00
2018-02-03T12:48:35.731Z,5.00
2018-02-03T12:49:35.659Z,5.00
2018-02-03T12:50:35.758Z,5.00
2018-02-03T12:51:35.660Z,5.00
2018-02-03T12:52:35.733Z,5.00
2018-02-03T12:53:35.662Z,4.00
2018-02-03T12:54:35.735Z,4.00
2018-02-03T12:55:35.662Z,4.00
2018-02-03T12:56:35.736Z,4.00
2018-02-03T12:57:35.667Z,4.00
2018-02-03T12:58:35.787Z,4.00
2018-02-03T12:59:35.673Z,4.00
2018-02-03T13:00:35.738Z,4.00
2018-02-03T13:01:35.677Z,4.00
2018-02-03T13:02:35.736Z,4.00
2018-02-03T13:03:35.677Z,4.00
2018-02-03T13:04:35.740Z,4.00
2018-02-03T13:05:35.672Z,4.00
2018-02-03T13:06:35.742Z,4.00
2018-02-03T13:07:35.671Z,4.00
2018-02-03T13:08:35.669Z,3.00
2018-02-03T13:09:35.745Z,3.00
2018-02-03T13:10:35.673Z,3.00
2018-02-03T13:11:35.748Z,3.00
2018-02-03T13:12:35.698Z,2.00
2018-02-03T13:13:35.709Z,2.00
2018-02-03T13:14:35.617Z,2.00
2018-02-03T13:15:35.677Z,2.00
2018-02-03T13:16:35.706Z,2.00
2018-02-03T13:17:35.715Z,3.00